• Join FlightAware (Why Join?)
  • Login
  • US Flag 
04:32AM EDT


 

Airport Tracker/Info


-or-


 

Live Flight TrackerFlight Track Log ✈ UAL4093 ✈ 22-Apr-2013 ✈ KEWR - CYHZ

Flight Track Log - Related Links

Times and Time Zones

All times are in EDT time to prevent confusion due to time zone crossing. See the UAL4093 flight status page for this flight to view local times or setup timezone preferences in your user account.

Time Position Orientation Groundspeed Altitude Reporting Facility
EDT Latitude Longitude Course Direction KTS MPH feet Rate Location/Type
10:54PM 40.7333 -74.1167 37° Northeast 192 221 2,800  Level New York TRACON
10:55PM 40.7833 -74.0667 37° Northeast 228 262 4,800 1,140 Climbing New York TRACON
10:56PM 40.8333 -74.0167 37° Northeast 250 288 5,100 1,440 Climbing New York TRACON
10:58PM 40.9222 -73.8519 54° Northeast 275 316 9,300 1,920 Climbing Boston Center
10:59PM 40.9672 -73.7650 56° Northeast 280 322 11,100 1,560 Climbing Boston Center
11:00PM 41.0200 -73.6864 48° Northeast 294 338 12,500 1,500 Climbing Boston Center
11:01PM 41.0878 -73.5858 48° Northeast 317 365 14,200 1,680 Climbing Boston Center
11:02PM 41.1661 -73.4686 48° Northeast 335 386 16,300 1,560 Climbing Boston Center
11:03PM 41.2275 -73.3675 51° Northeast 342 394 17,700 1,200 Climbing Boston Center
11:04PM 41.2783 -73.2658 56° Northeast 353 406 18,800 1,380 Climbing Boston Center
11:05PM 41.3353 -73.1561 55° Northeast 358 412 20,500 1,500 Climbing Boston Center
11:06PM 41.3942 -73.0433 55° Northeast 358 412 21,800 720 Climbing Boston Center
11:07PM 41.4553 -72.9219 56° Northeast 373 429 22,000 1,080 Climbing Boston Center
11:08PM 41.5183 -72.7950 56° Northeast 396 456 24,000 1,500 Climbing Boston Center
11:09PM 41.5853 -72.6622 56° Northeast 396 456 25,000 480 Climbing Boston Center
11:10PM 41.6500 -72.5233 58° Northeast 404 465 25,000  Level Boston Center
11:11PM 41.7189 -72.3761 58° Northeast 434 499 25,000  Level Boston Center
11:12PM 41.8083 -72.2619 44° Northeast 468 539 25,000  Level Boston Center
11:13PM 41.9144 -72.1500 38° Northeast 474 545 25,000  Level Boston Center
11:14PM 42.0203 -72.0378 38° Northeast 479 551 25,000  Level Boston Center
11:15PM 42.1303 -71.9194 39° Northeast 486 559 25,000  Level Boston Center
11:16PM 42.2044 -71.7647 57° Northeast 486 559 25,000  Level Boston Center
11:17PM 42.2681 -71.5983 63° Northeast 486 559 25,000  Level Boston Center
11:18PM 42.3333 -71.4375 61° Northeast 486 559 25,000  Level Boston Center
11:19PM 42.3964 -71.2650 64° Northeast 491 565 25,000  Level Boston Center
11:20PM 42.4572 -71.1006 63° Northeast 491 565 25,000  Level Boston Center
11:21PM 42.5136 -70.9417 64° Northeast 486 559 25,000  Level Boston Center
11:22PM 42.5694 -70.7767 65° Northeast 475 547 25,000  Level Boston Center
11:23PM 42.6317 -70.6142 62° Northeast 475 547 25,000  Level Boston Center
11:24PM 42.6853 -70.4544 65° Northeast 465 535 25,000  Level Boston Center
11:25PM 42.7428 -70.2914 64° Northeast 465 535 25,000  Level Boston Center
11:26PM 42.8042 -70.1281 63° Northeast 470 541 25,000  Level Boston Center
11:27PM 42.8611 -69.9644 65° Northeast 470 541 25,000  Level Boston Center
11:28PM 42.9181 -69.8006 65° Northeast 470 541 25,000  Level Boston Center
11:29PM 42.9764 -69.6333 64° Northeast 470 541 25,000  Level Boston Center
11:30PM 43.0347 -69.4658 64° Northeast 475 547 25,000  Level Boston Center
11:31PM 43.0928 -69.2925 65° Northeast 481 554 25,000  Level Boston Center
11:32PM 43.1506 -69.1272 64° Northeast 481 554 25,000  Level Boston Center
11:33PM 43.1667 -69.0167 79° East 500 575 25,000  Level Moncton Center
11:34PM 43.2333 -68.8667 59° Northeast 500 575 25,000  Level Moncton Center
11:34PM 43.2711 -68.7783 60° Northeast 486 559 25,000  Level Boston Center
11:35PM 43.3281 -68.6036 66° East 491 565 25,000  Level Boston Center
11:36PM 43.3886 -68.4253 65° Northeast 496 571 25,000  Level Boston Center
11:37PM 43.4525 -68.2294 66° East 501 577 25,000  Level Boston Center
11:38PM 43.5125 -68.0533 65° Northeast 501 577 25,000  Level Boston Center
11:39PM 43.5681 -67.8744 67° East 501 577 25,000  Level Boston Center
11:40PM 43.6272 -67.6919 66° East 506 582 25,000  Level Boston Center
11:41PM 43.6864 -67.5122 65° Northeast 506 582 25,000  Level Boston Center
11:42PM 43.7433 -67.3319 66° East 511 588 25,000  Level Boston Center
11:43PM 43.8019 -67.1544 65° Northeast 506 582 25,000  Level Boston Center
11:44PM 43.8167 -67.0333 80° East 510 587 25,000  Level Moncton Center
11:45PM 43.8833 -66.8833 58° Northeast 510 587 25,000  Level Moncton Center
11:46PM 43.9500 -66.7000 63° Northeast 510 587 25,000  Level Moncton Center
11:47PM 44.0167 -66.5333 61° Northeast 490 564 25,000 -60 Level Moncton Center
11:48PM 44.0667 -66.3667 67° East 460 529 24,900 -600 Descending Moncton Center
11:49PM 44.1167 -66.2167 65° Northeast 440 506 23,800 -1,140 Descending Moncton Center
11:50PM 44.1667 -66.1000 59° Northeast 400 460 22,700 -1,080 Descending Moncton Center
11:51PM 44.2333 -65.9667 55° Northeast 360 414 21,700 -960 Descending Moncton Center
11:52PM 44.2667 -65.8500 68° East 360 414 20,800 -1,320 Descending Moncton Center
11:53PM 44.3167 -65.7000 65° Northeast 380 437 19,100 -1,380 Descending Moncton Center
11:54PM 44.3667 -65.5667 62° Northeast 390 449 18,100 -780 Descending Moncton Center
11:55PM 44.4000 -65.4333 71° East 380 437 17,600 -300 Descending Moncton Center
11:56PM 44.4500 -65.3167 59° Northeast 380 437 17,600 -840 Level Moncton Center
11:57PM 44.5000 -65.1667 65° Northeast 370 426 16,000 -1,920 Descending Moncton Center
11:58PM 44.5333 -65.0500 68° East 350 403 13,800 -1,980 Descending Moncton Center
11:59PM 44.5833 -64.9333 59° Northeast 330 380 12,100 -1,380 Descending Moncton Center
12:00AM 44.6167 -64.8167 68° East 330 380 11,100 -960 Descending Moncton Center
12:01AM 44.6500 -64.7000 68° East 320 368 10,200 -480 Descending Moncton Center
12:02AM 44.6833 -64.6167 61° Northeast 290 334 10,200 -540 Level Moncton Center
12:03AM 44.7333 -64.4833 62° Northeast 290 334 9,200 -1,080 Descending Moncton Center
12:04AM 44.7500 -64.4167 71° East 280 322 8,100 -1,080 Descending Moncton Center
12:05AM 44.7833 -64.3333 61° Northeast 260 299 7,100 -1,020 Descending Moncton Center
12:06AM 44.8167 -64.2333 65° Northeast 250 288 6,100 -1,140 Descending Moncton Center
12:07AM 44.8500 -64.1333 65° Northeast 250 288 4,900 -1,320 Descending Moncton Center
12:08AM 44.8833 -64.0667 55° Northeast 240 276 3,500 -1,200 Descending Moncton Center
12:09AM 44.9167 -64.0000 55° Northeast 220 253 2,500 -600 Descending Moncton Center
12:10AM 44.9167 -63.9167 90° East 190 219 2,300 -120 Descending Moncton Center
12:11AM 44.9333 -63.8500 71° East 190 219 2,300  Level Moncton Center
12:12AM 44.9500 -63.7667 74° East 210 242 2,300  Level Moncton Center
12:13AM 44.9500 -63.6833 90° East 200 230 2,300 60 Level Moncton Center
12:14AM 44.9333 -63.6167 109° East 190 219 2,500 -300 Climbing Moncton Center
12:15AM 44.9167 -63.5667 115° Southeast 150 173 1,700 -720 Descending Moncton Center
12:16AM 44.9000 -63.5500 145° Southeast 110 127 1,100 -600 Descending Moncton Center
12:17AM 44.8667 -63.5000 133° Southeast 110 127 500 -300 Descending Moncton Center
12:18AM 44.8667 -63.4833 90° East 110 127 500  Level Moncton Center